Time;durP1;ratioP1;P1;durP2;ratioP2;P2;SDS_P1;SDS_P2;PMS_P1;PMS_P2;Temp;Humidity;BMP_temperature;BMP_pressure;BME280_temperature;BME280_humidity;BME280_pressure;Samples;Min_cycle;Max_cycle;Signal;HPM_P1;HPM_P2
2022/10/05 09:37:54;;;;;;;;;;;14.00;99.90;;;;;;5100139;27;20322;-82
2022/10/05 09:40:43;;;;;;;7.78;4.20;;;14.00;99.90;;;;;;5095516;28;20364;-83
2022/10/05 09:43:38;;;;;;;7.03;4.63;;;14.20;99.90;;;;;;5103976;28;20081;-82
2022/10/05 09:46:25;;;;;;;7.90;4.80;;;14.30;99.90;;;;;;5093330;28;20107;-83
2022/10/05 09:49:09;;;;;;;8.13;4.60;;;14.40;99.90;;;;;;5102919;28;20035;-84
2022/10/05 09:51:47;;;;;;;5.68;4.65;;;14.60;99.90;;;;;;5103491;28;20028;-83
2022/10/05 09:54:13;;;;;;;5.53;4.80;;;14.70;99.90;;;;;;5099136;28;20093;-83
2022/10/05 09:57:02;;;;;;;6.40;4.47;;;14.80;99.90;;;;;;5078665;28;20711;-83
2022/10/05 09:59:34;;;;;;;6.63;4.50;;;14.90;99.90;;;;;;5105055;28;20031;-83
2022/10/05 10:02:23;;;;;;;6.15;4.38;;;15.10;99.90;;;;;;5099547;28;20028;-82
2022/10/05 10:05:22;;;;;;;4.72;3.83;;;15.20;99.90;;;;;;5103390;28;20066;-83
2022/10/05 10:08:19;;;;;;;7.32;4.55;;;15.40;99.90;;;;;;5091758;28;20392;-82
2022/10/05 10:11:07;;;;;;;5.45;4.50;;;15.50;99.90;;;;;;5096059;28;20061;-83
2022/10/05 10:14:19;;;;;;;12.18;4.70;;;15.50;99.90;;;;;;5090313;28;20020;-83
2022/10/05 10:17:15;;;;;;;7.93;4.30;;;15.70;99.90;;;;;;5082077;28;20063;-83
2022/10/05 10:19:50;;;;;;;6.32;4.18;;;15.70;99.90;;;;;;5088367;28;20026;-83
2022/10/05 10:22:41;;;;;;;5.23;3.90;;;15.80;99.90;;;;;;5111940;28;20020;-83
2022/10/05 10:25:18;;;;;;;4.68;3.42;;;15.90;99.90;;;;;;5065976;28;20090;-83
2022/10/05 10:28:21;;;;;;;3.53;3.20;;;16.10;99.90;;;;;;5066079;28;20043;-83
2022/10/05 10:31:24;;;;;;;3.58;2.75;;;16.10;99.90;;;;;;5088605;28;20070;-83
2022/10/05 10:34:21;;;;;;;3.95;2.60;;;16.30;99.90;;;;;;5100762;28;20052;-84
2022/10/05 10:37:18;;;;;;;2.75;2.55;;;16.40;99.90;;;;;;5090334;28;20024;-83
2022/10/05 10:39:56;;;;;;;4.70;2.65;;;16.50;99.90;;;;;;5083467;28;20028;-83
2022/10/05 10:42:28;;;;;;;4.65;2.88;;;16.60;99.90;;;;;;5084008;28;20081;-83
2022/10/05 10:45:26;;;;;;;4.47;2.38;;;16.60;99.90;;;;;;5093154;28;20036;-83
2022/10/05 10:47:59;;;;;;;4.78;1.92;;;16.60;99.90;;;;;;5022618;28;20406;-83
2022/10/05 10:50:46;;;;;;;3.28;2.80;;;16.70;99.90;;;;;;5074070;28;20016;-83
2022/10/05 10:53:34;;;;;;;3.85;2.80;;;16.70;99.90;;;;;;5089859;28;20054;-83
2022/10/05 10:56:25;;;;;;;5.30;2.65;;;16.80;99.90;;;;;;5087790;28;20031;-83
2022/10/05 10:59:03;;;;;;;3.85;2.85;;;16.80;99.90;;;;;;5070075;28;20032;-83
2022/10/05 11:01:34;;;;;;;2.72;2.50;;;16.90;99.90;;;;;;5077137;28;20056;-83
2022/10/05 11:04:31;;;;;;;2.65;2.30;;;16.90;99.90;;;;;;5074368;28;20032;-83
2022/10/05 11:07:23;;;;;;;2.60;2.28;;;17.00;99.90;;;;;;5081434;28;20033;-83
2022/10/05 11:10:14;;;;;;;3.65;2.78;;;17.00;99.90;;;;;;5086396;28;20369;-83
2022/10/05 11:12:43;;;;;;;3.92;2.67;;;17.00;99.90;;;;;;5083238;28;20388;-83
2022/10/05 11:15:33;;;;;;;2.88;2.55;;;17.00;99.90;;;;;;5077895;28;20036;-81
2022/10/05 11:18:20;;;;;;;2.72;2.53;;;17.10;99.90;;;;;;5080195;28;20032;-83
2022/10/05 11:21:01;;;;;;;2.97;2.65;;;17.20;99.90;;;;;;5081096;28;20107;-83
2022/10/05 11:23:46;;;;;;;2.63;2.42;;;17.20;99.90;;;;;;5079509;28;20070;-84
2022/10/05 11:26:32;;;;;;;2.85;2.50;;;17.20;99.90;;;;;;5068481;28;20035;-83
2022/10/05 11:29:10;;;;;;;2.63;2.20;;;17.20;99.90;;;;;;5076754;28;20122;-83
2022/10/05 11:32:05;;;;;;;2.67;2.30;;;17.30;99.90;;;;;;5081159;28;20033;-82
2022/10/05 11:34:57;;;;;;;6.93;2.70;;;17.30;99.90;;;;;;5065191;28;20373;-82
2022/10/05 11:37:57;;;;;;;3.85;2.40;;;17.30;99.90;;;;;;5078715;28;20039;-83
2022/10/05 11:40:45;;;;;;;3.33;2.72;;;17.30;99.90;;;;;;5084517;28;20025;-83
2022/10/05 11:43:28;;;;;;;3.78;2.53;;;17.30;99.90;;;;;;5077725;28;20656;-81
2022/10/05 11:46:04;;;;;;;3.55;2.58;;;17.40;99.90;;;;;;5070022;28;20027;-81
2022/10/05 11:48:48;;;;;;;4.22;2.33;;;17.50;99.90;;;;;;5092136;28;20068;-82
2022/10/05 11:51:14;;;;;;;4.45;2.83;;;17.60;99.90;;;;;;5091654;28;20027;-81
2022/10/05 11:53:57;;;;;;;4.45;2.20;;;17.60;99.90;;;;;;5091582;28;20032;-81
2022/10/05 11:56:42;;;;;;;2.65;2.45;;;17.70;99.90;;;;;;5090082;28;20086;-81
2022/10/05 11:59:18;;;;;;;2.50;2.20;;;17.80;99.90;;;;;;5072723;28;20440;-81
2022/10/05 12:01:56;;;;;;;;;;;17.80;99.90;;;;;;5082672;28;20028;-81
2022/10/05 12:04:40;;;;;;;3.65;2.80;;;17.90;99.90;;;;;;5086350;28;19907;-81
2022/10/05 12:07:19;;;;;;;3.92;2.67;;;17.90;99.90;;;;;;5090196;28;20115;-82
2022/10/05 12:10:13;;;;;;;2.60;2.40;;;18.00;99.90;;;;;;5089361;28;20070;-81
2022/10/05 12:13:05;;;;;;;4.30;2.45;;;18.00;99.90;;;;;;5085369;28;20020;-81
2022/10/05 12:15:53;;;;;;;3.20;2.85;;;18.00;99.90;;;;;;5085134;28;20028;-81
2022/10/05 12:18:31;;;;;;;2.65;2.20;;;18.00;99.90;;;;;;5073192;28;20027;-80
2022/10/05 12:21:03;;;;;;;2.08;1.88;;;18.00;99.90;;;;;;5080587;28;20043;-82
2022/10/05 12:23:34;;;;;;;2.47;2.17;;;18.00;99.90;;;;;;5081966;28;20028;-81
2022/10/05 12:26:10;;;;;;;4.30;2.65;;;17.90;99.90;;;;;;5083733;28;20061;-83
2022/10/05 12:28:59;;;;;;;3.05;1.95;;;17.90;99.90;;;;;;5087002;28;20093;-81
2022/10/05 12:31:39;;;;;;;3.40;2.10;;;17.80;99.90;;;;;;5083716;28;20324;-81
2022/10/05 12:34:14;;;;;;;2.33;2.13;;;17.80;99.90;;;;;;5077096;28;20097;-81
2022/10/05 12:36:43;;;;;;;2.00;1.80;;;17.80;99.90;;;;;;5076391;28;20032;-81
2022/10/05 12:39:18;;;;;;;2.20;2.00;;;17.80;99.90;;;;;;5079313;28;20429;-81
2022/10/05 12:41:59;;;;;;;2.20;1.92;;;17.80;99.90;;;;;;5082716;28;20031;-83
2022/10/05 12:44:41;;;;;;;2.20;2.00;;;17.80;99.90;;;;;;5088567;28;20031;-82
2022/10/05 12:47:34;;;;;;;4.80;2.28;;;17.70;99.90;;;;;;5086215;28;20055;-83
2022/10/05 12:50:02;;;;;;;3.65;2.30;;;17.70;99.90;;;;;;5082112;28;20024;-83
2022/10/05 12:52:58;;;;;;;2.28;2.08;;;17.70;99.90;;;;;;5088956;28;20030;-83
2022/10/05 12:55:40;;;;;;;8.20;2.63;;;17.70;99.90;;;;;;5076274;28;20036;-83
2022/10/05 12:58:15;;;;;;;2.47;2.03;;;17.70;99.90;;;;;;5068146;28;20066;-82
2022/10/05 13:01:04;;;;;;;4.90;2.40;;;17.70;99.90;;;;;;5069286;28;20024;-83
2022/10/05 13:03:38;;;;;;;3.17;2.20;;;17.60;99.90;;;;;;5061475;28;20112;-82
2022/10/05 13:06:48;;;;;;;3.33;2.55;;;17.70;99.90;;;;;;5072781;28;20036;-83
2022/10/05 13:09:37;;;;;;;3.72;2.15;;;17.70;99.90;;;;;;5064653;28;20120;-83
2022/10/05 13:12:28;;;;;;;3.45;2.10;;;17.70;99.90;;;;;;5065790;28;20629;-83
2022/10/05 13:15:24;;;;;;;3.17;2.88;;;17.60;99.90;;;;;;5077331;28;20035;-82
2022/10/05 13:18:12;;;;;;;3.78;2.45;;;17.60;99.90;;;;;;5077390;28;20032;-83
2022/10/05 13:20:46;;;;;;;2.97;2.55;;;17.70;99.90;;;;;;5085732;28;20035;-82
2022/10/05 13:23:30;;;;;;;6.97;2.67;;;17.60;99.90;;;;;;5079711;28;20067;-83
2022/10/05 13:26:06;;;;;;;2.75;2.40;;;17.60;99.90;;;;;;5088444;28;20449;-82
2022/10/05 13:28:43;;;;;;;2.83;2.60;;;17.50;99.90;;;;;;5084737;28;20058;-82
2022/10/05 13:31:25;;;;;;;2.28;1.75;;;17.50;99.90;;;;;;5071030;28;20123;-83
2022/10/05 13:34:36;;;;;;;2.85;2.28;;;17.50;99.90;;;;;;5068421;28;20094;-82
2022/10/05 13:37:20;;;;;;;3.95;2.40;;;17.50;99.90;;;;;;5064791;28;20052;-83
2022/10/05 13:40:17;;;;;;;3.22;2.30;;;17.40;99.90;;;;;;5059564;28;20505;-83
2022/10/05 13:43:16;;;;;;;4.10;2.83;;;17.30;99.90;;;;;;5047775;28;20035;-81
2022/10/05 13:46:24;;;;;;;2.50;2.30;;;17.30;99.90;;;;;;5087523;28;20213;-82
2022/10/05 13:49:03;;;;;;;2.35;2.15;;;17.30;99.90;;;;;;5065322;28;20068;-82
2022/10/05 13:52:07;;;;;;;2.30;2.00;;;17.30;99.90;;;;;;5080535;28;20621;-83
2022/10/05 13:54:59;;;;;;;3.33;2.40;;;17.20;99.90;;;;;;5077172;28;20032;-83
2022/10/05 13:57:46;;;;;;;3.33;2.50;;;17.00;99.90;;;;;;5069642;28;20024;-83
2022/10/05 14:00:16;;;;;;;6.55;2.35;;;16.90;99.90;;;;;;5070936;28;20067;-82
2022/10/05 14:02:46;;;;;;;2.97;2.60;;;16.80;99.90;;;;;;5071144;28;20039;-84
2022/10/05 14:05:21;;;;;;;3.22;2.25;;;16.80;99.90;;;;;;5087807;28;20101;-82
2022/10/05 14:07:55;;;;;;;4.03;2.72;;;16.70;99.90;;;;;;5037839;28;20109;-82
2022/10/05 14:10:37;;;;;;;5.22;2.22;;;16.60;99.90;;;;;;5054986;28;20040;-84
2022/10/05 14:13:30;;;;;;;4.75;2.50;;;16.50;99.90;;;;;;5087891;28;20510;-82
2022/10/05 14:16:03;;;;;;;3.55;2.17;;;16.50;99.90;;;;;;5083383;28;20032;-82
2022/10/05 14:18:32;;;;;;;2.42;2.22;;;16.40;99.90;;;;;;5055685;28;20036;-82
2022/10/05 14:21:01;;;;;;;6.10;2.97;;;16.40;99.90;;;;;;5052298;28;20029;-83
2022/10/05 14:23:28;;;;;;;6.40;2.90;;;16.50;99.90;;;;;;5078816;28;20481;-83
2022/10/05 14:25:54;;;;;;;6.32;2.42;;;16.50;99.90;;;;;;5069481;28;20069;-82
2022/10/05 14:28:32;;;;;;;2.88;2.65;;;16.50;99.90;;;;;;5092666;28;20035;-81
2022/10/05 14:31:02;;;;;;;2.60;2.40;;;16.50;99.90;;;;;;5058550;28;20376;-83
2022/10/05 14:33:31;;;;;;;4.03;2.40;;;16.50;99.90;;;;;;5089307;28;20036;-82
2022/10/05 14:35:58;;;;;;;3.67;2.28;;;16.40;99.90;;;;;;5079908;28;20059;-84
2022/10/05 14:38:47;;;;;;;6.00;2.40;;;16.40;99.90;;;;;;5083942;28;20050;-83
2022/10/05 14:41:24;;;;;;;2.83;2.20;;;16.30;99.90;;;;;;5073753;28;20116;-83
2022/10/05 14:44:04;;;;;;;6.80;2.67;;;16.30;99.90;;;;;;5090673;28;20119;-81
2022/10/05 14:46:31;;;;;;;3.92;2.47;;;16.20;99.90;;;;;;5070394;28;20028;-81
2022/10/05 14:49:35;;;;;;;3.88;2.60;;;16.20;99.90;;;;;;5083777;28;20040;-85
2022/10/05 14:52:31;;;;;;;2.65;2.45;;;16.10;99.90;;;;;;5034526;28;20063;-82
2022/10/05 14:55:05;;;;;;;2.78;2.17;;;16.10;99.90;;;;;;5070671;28;20081;-82
2022/10/05 14:57:38;;;;;;;5.30;2.53;;;16.00;99.90;;;;;;5066226;28;20082;-83
2022/10/05 15:00:15;;;;;;;2.88;2.22;;;16.00;99.90;;;;;;5082590;28;20057;-84
2022/10/05 15:03:04;;;;;;;3.58;2.50;;;16.00;99.90;;;;;;5071257;28;20033;-83
2022/10/05 15:05:44;;;;;;;3.35;2.60;;;15.90;99.90;;;;;;5077212;28;20020;-83
2022/10/05 15:08:10;;;;;;;3.67;2.28;;;15.90;99.90;;;;;;5087884;28;20028;-83
2022/10/05 15:10:48;;;;;;;2.00;1.90;;;15.90;99.90;;;;;;5086626;28;20020;-83
2022/10/05 15:13:20;;;;;;;2.45;2.25;;;15.80;99.90;;;;;;5081841;28;20032;-83
2022/10/05 15:15:56;;;;;;;3.45;2.53;;;15.80;99.90;;;;;;5053296;28;20036;-83
2022/10/05 15:18:41;;;;;;;3.13;2.17;;;15.70;99.90;;;;;;5081306;28;20424;-83
2022/10/05 15:21:22;;;;;;;2.42;2.03;;;15.70;99.90;;;;;;5084437;28;20024;-83
2022/10/05 15:24:19;;;;;;;6.90;3.45;;;15.70;99.90;;;;;;5092297;28;20024;-85
2022/10/05 15:26:53;;;;;;;2.80;2.60;;;15.70;99.90;;;;;;5079324;28;20098;-83
2022/10/05 15:29:32;;;;;;;4.35;2.50;;;15.60;99.90;;;;;;5057680;28;20462;-81
2022/10/05 15:32:22;;;;;;;3.42;2.45;;;15.60;99.90;;;;;;5090189;28;20043;-82
2022/10/05 15:34:48;;;;;;;2.88;2.47;;;15.60;99.90;;;;;;5072398;28;20028;-81
2022/10/05 15:37:41;;;;;;;6.72;3.58;;;15.60;99.90;;;;;;5075427;28;20059;-82
2022/10/05 15:40:20;;;;;;;5.03;2.80;;;15.50;99.90;;;;;;5091594;28;20031;-82
2022/10/05 15:42:47;;;;;;;3.10;2.35;;;15.50;99.90;;;;;;5083996;28;20469;-81
2022/10/05 15:45:31;;;;;;;3.25;2.80;;;15.40;99.90;;;;;;5069475;28;20032;-82
2022/10/05 15:48:06;;;;;;;3.17;2.75;;;15.40;99.90;;;;;;5067922;28;20036;-82
2022/10/05 15:51:01;;;;;;;3.15;2.65;;;15.40;99.90;;;;;;5087986;28;20051;-82
2022/10/05 15:53:39;;;;;;;3.30;2.80;;;15.30;99.90;;;;;;5068199;28;21085;-82
2022/10/05 15:56:26;;;;;;;7.57;3.60;;;15.30;99.90;;;;;;5083826;28;20031;-82
2022/10/05 15:58:54;;;;;;;3.78;3.00;;;15.30;99.90;;;;;;5090117;28;20511;-82
2022/10/05 16:01:40;;;;;;;5.22;3.22;;;15.20;99.90;;;;;;5064198;28;20059;-81
2022/10/05 16:04:30;;;;;;;4.22;2.90;;;15.20;99.90;;;;;;5064276;28;20036;-81
2022/10/05 16:10:23;;;;;;;8.25;3.40;;;15.10;99.90;;;;;;5093454;28;20396;-81
2022/10/05 16:13:07;;;;;;;5.95;4.07;;;15.00;99.90;;;;;;5060103;28;20044;-82
2022/10/05 16:15:40;;;;;;;8.85;4.90;;;14.90;99.90;;;;;;5085324;28;20034;-82
2022/10/05 16:18:50;;;;;;;6.00;5.40;;;14.90;99.90;;;;;;5056322;28;20028;-82
2022/10/05 16:21:56;;;;;;;6.78;5.70;;;14.80;99.90;;;;;;5080773;28;20085;-82
2022/10/05 16:24:46;;;;;;;5.30;4.80;;;14.70;99.90;;;;;;5063321;28;20390;-82
2022/10/05 16:27:21;;;;;;;9.30;5.40;;;14.60;99.90;;;;;;5088490;28;20496;-82
2022/10/05 16:30:07;;;;;;;5.82;5.22;;;14.50;99.90;;;;;;5085894;28;20081;-81
2022/10/05 16:32:36;;;;;;;;;;;14.50;99.90;;;;;;5092440;28;20020;-82
2022/10/05 16:35:36;;;;;;;6.50;4.28;;;14.40;99.90;;;;;;5086415;28;19908;-81
2022/10/05 16:38:20;;;;;;;8.43;4.20;;;14.40;99.90;;;;;;5077414;28;20131;-82
2022/10/05 16:41:09;;;;;;;4.68;4.20;;;14.30;99.90;;;;;;5079431;28;20028;-82
2022/10/05 16:44:09;;;;;;;6.28;4.35;;;14.20;99.90;;;;;;5077736;28;20511;-82
2022/10/05 16:46:58;;;;;;;7.65;4.50;;;14.10;99.90;;;;;;5080232;28;20168;-81
2022/10/05 16:49:33;;;;;;;5.35;3.97;;;14.10;99.90;;;;;;5080955;28;20048;-82
2022/10/05 16:52:01;;;;;;;6.80;5.43;;;14.00;99.90;;;;;;5082787;28;20028;-82
2022/10/05 16:54:31;;;;;;;9.88;6.30;;;13.90;99.90;;;;;;5081068;28;20040;-81
2022/10/05 16:57:17;;;;;;;9.18;5.50;;;13.80;99.90;;;;;;5077359;28;20053;-81
2022/10/05 16:59:51;;;;;;;4.85;4.32;;;13.80;99.90;;;;;;5077489;28;20021;-82
2022/10/05 17:02:21;;;;;;;;;;;13.70;99.90;;;;;;5084188;28;20560;-82
2022/10/05 17:05:13;;;;;;;6.68;4.55;;;13.70;99.90;;;;;;5083173;28;19977;-81
2022/10/05 17:07:45;;;;;;;6.15;5.10;;;13.60;99.90;;;;;;5060985;28;20024;-81
2022/10/05 17:10:29;;;;;;;5.43;4.53;;;13.60;99.90;;;;;;5082123;28;20495;-82
2022/10/05 17:13:23;;;;;;;7.10;4.15;;;13.50;99.90;;;;;;5078421;28;20469;-82
2022/10/05 17:16:03;;;;;;;3.97;3.67;;;13.40;99.90;;;;;;5087559;28;20029;-82
2022/10/05 17:18:52;;;;;;;5.30;4.68;;;13.40;99.90;;;;;;5080047;28;20028;-82
2022/10/05 17:21:33;;;;;;;5.88;4.38;;;13.30;99.90;;;;;;5068604;28;20449;-81
2022/10/05 17:24:23;;;;;;;5.85;4.63;;;13.20;99.90;;;;;;5075811;28;20059;-81
2022/10/05 17:26:54;;;;;;;5.15;4.65;;;13.20;99.90;;;;;;5080311;28;20455;-81
2022/10/05 17:29:50;;;;;;;7.45;4.80;;;13.10;99.90;;;;;;5083325;28;20028;-81
2022/10/05 17:32:16;;;;;;;7.03;4.55;;;13.10;99.90;;;;;;5078193;28;20055;-82
2022/10/05 17:35:00;;;;;;;6.68;5.10;;;13.00;99.90;;;;;;5076652;28;20532;-81
2022/10/05 17:37:26;;;;;;;7.13;5.80;;;13.00;99.90;;;;;;5075096;28;20034;-82
2022/10/05 17:39:54;;;;;;;7.88;5.90;;;12.90;99.90;;;;;;5075680;28;20095;-82
2022/10/05 17:42:27;;;;;;;9.25;6.05;;;12.90;99.90;;;;;;5079834;28;20023;-81
2022/10/05 17:44:56;;;;;;;7.45;5.75;;;12.90;99.90;;;;;;5075660;28;20033;-81
2022/10/05 17:48:02;;;;;;;9.05;6.60;;;12.80;99.90;;;;;;5057428;28;20127;-82
2022/10/05 17:56:27;;;;;;;9.25;7.07;;;12.80;99.90;;;;;;5082361;28;20048;-81
2022/10/05 17:58:53;;;;;;;8.00;6.60;;;12.80;99.90;;;;;;5068084;28;20056;-82
2022/10/05 18:01:32;;;;;;;7.30;6.55;;;12.80;99.90;;;;;;5082132;28;20023;-82
2022/10/05 18:04:10;;;;;;;7.15;5.95;;;12.90;99.90;;;;;;5067916;28;20522;-82
2022/10/05 18:06:46;;;;;;;6.38;5.55;;;12.90;99.90;;;;;;5082552;28;20024;-81
2022/10/05 18:09:25;;;;;;;7.05;4.93;;;13.00;99.90;;;;;;5079583;28;20570;-81
2022/10/05 18:12:09;;;;;;;6.70;5.30;;;12.90;99.90;;;;;;5088933;28;20036;-81
2022/10/05 18:15:06;;;;;;;5.93;5.05;;;12.90;99.90;;;;;;5075187;28;20081;-82
2022/10/05 18:17:45;;;;;;;6.88;5.20;;;12.90;99.90;;;;;;5085726;28;20038;-81
2022/10/05 18:20:17;;;;;;;8.23;5.88;;;12.80;99.90;;;;;;5080604;28;20074;-81
2022/10/05 18:22:45;;;;;;;7.63;5.28;;;12.80;99.90;;;;;;5067360;28;20464;-82
2022/10/05 18:25:37;;;;;;;7.75;6.25;;;12.80;99.90;;;;;;5088214;28;20025;-81
2022/10/05 18:28:20;;;;;;;14.57;7.82;;;12.70;99.90;;;;;;5076148;28;20036;-82
2022/10/05 18:31:27;;;;;;;17.10;7.53;;;12.70;99.90;;;;;;5081086;28;20024;-82
2022/10/05 18:34:02;;;;;;;;;;;12.70;99.90;;;;;;5077479;28;20047;-81
2022/10/05 18:37:02;;;;;;;10.63;6.15;;;12.60;99.90;;;;;;5075521;28;19916;-81
2022/10/05 18:39:49;;;;;;;10.73;6.57;;;12.60;99.90;;;;;;5077380;28;20082;-81
2022/10/05 18:42:28;;;;;;;10.15;6.90;;;12.60;99.90;;;;;;5082715;28;20024;-82
2022/10/05 18:45:17;;;;;;;8.77;6.30;;;12.60;99.90;;;;;;5073758;28;20032;-82
2022/10/05 18:48:08;;;;;;;7.13;6.03;;;12.60;99.90;;;;;;5064860;28;20039;-82
2022/10/05 18:50:57;;;;;;;12.38;7.10;;;12.50;99.90;;;;;;5066769;28;20029;-81
2022/10/05 18:53:43;;;;;;;8.57;6.63;;;12.50;99.90;;;;;;5072130;28;20028;-81
2022/10/05 18:56:41;;;;;;;9.75;7.10;;;12.40;99.90;;;;;;5075487;28;20435;-81
2022/10/05 18:59:35;;;;;;;8.68;6.22;;;12.40;99.90;;;;;;5041857;28;20082;-82
2022/10/05 19:02:24;;;;;;;7.75;6.05;;;12.40;99.90;;;;;;5084009;28;20035;-82
2022/10/05 19:05:05;;;;;;;7.25;6.25;;;12.30;99.90;;;;;;5076499;28;20511;-82
2022/10/05 19:08:09;;;;;;;8.30;6.15;;;12.30;99.90;;;;;;5080275;28;20024;-83
2022/10/05 19:11:01;;;;;;;8.50;6.00;;;12.30;99.90;;;;;;5062917;28;20473;-82
2022/10/05 19:14:05;;;;;;;9.25;6.05;;;12.30;99.90;;;;;;5083793;28;20048;-81
2022/10/05 19:16:53;;;;;;;8.65;6.03;;;12.30;99.90;;;;;;5076611;28;20047;-83
2022/10/05 19:19:42;;;;;;;8.20;6.43;;;12.30;99.90;;;;;;5073641;28;20035;-81
2022/10/05 19:22:36;;;;;;;10.05;7.07;;;12.30;99.90;;;;;;5080331;28;20024;-82
2022/10/05 19:25:22;;;;;;;11.23;6.85;;;12.30;99.90;;;;;;5087226;28;20096;-82
2022/10/05 19:28:07;;;;;;;;;;;12.30;99.90;;;;;;5061549;28;20106;-81
2022/10/05 19:31:00;;;;;;;7.97;5.95;;;12.30;99.90;;;;;;5077236;28;19908;-82
2022/10/05 19:34:03;;;;;;;10.45;5.90;;;12.30;99.90;;;;;;5064553;28;20031;-82
2022/10/05 19:37:06;;;;;;;10.43;6.35;;;12.40;99.90;;;;;;5077657;28;20028;-83
2022/10/05 19:39:52;;;;;;;8.68;5.57;;;12.40;99.90;;;;;;5039428;28;20045;-83
2022/10/05 19:42:24;;;;;;;8.05;5.50;;;12.40;99.90;;;;;;5077856;28;20101;-82
2022/10/05 19:45:08;;;;;;;8.30;5.78;;;12.40;99.90;;;;;;5071118;28;20032;-84
2022/10/05 19:47:43;;;;;;;7.82;6.32;;;12.30;99.90;;;;;;5070803;28;20029;-83
2022/10/05 19:50:28;;;;;;;8.27;5.33;;;12.30;99.90;;;;;;5064545;28;20094;-83
2022/10/05 19:53:07;;;;;;;7.70;5.70;;;12.30;99.90;;;;;;5074818;28;20146;-84
2022/10/05 19:55:44;;;;;;;7.43;5.65;;;12.30;99.90;;;;;;5074313;28;20087;-82
2022/10/05 19:58:25;;;;;;;6.53;4.97;;;12.30;99.90;;;;;;5073446;28;20385;-84
2022/10/05 20:00:58;;;;;;;6.15;5.15;;;12.30;99.90;;;;;;5057488;28;20033;-82
2022/10/05 20:03:30;;;;;;;7.18;5.30;;;12.20;99.90;;;;;;5076731;28;20096;-83
2022/10/05 20:05:58;;;;;;;5.60;4.95;;;12.20;99.90;;;;;;5076238;28;20032;-83
2022/10/05 20:08:25;;;;;;;6.57;5.45;;;12.20;99.90;;;;;;5076789;28;20043;-83
2022/10/05 20:11:13;;;;;;;6.65;4.93;;;12.20;99.90;;;;;;5041066;28;20031;-83
2022/10/05 20:14:08;;;;;;;8.65;5.60;;;12.20;99.90;;;;;;5076099;28;20046;-83
2022/10/05 20:22:27;;;;;;;6.10;5.18;;;12.20;99.90;;;;;;5078200;28;20016;-83
2022/10/05 20:24:59;;;;;;;7.03;5.47;;;12.20;99.90;;;;;;5056654;28;20317;-82
2022/10/05 20:27:54;;;;;;;7.93;6.07;;;12.20;99.90;;;;;;5072912;28;20035;-82
2022/10/05 20:30:21;;;;;;;7.95;5.28;;;12.20;99.90;;;;;;5069181;28;20056;-82
2022/10/05 20:32:52;;;;;;;6.32;5.13;;;12.20;99.90;;;;;;5067904;28;20032;-82
2022/10/05 20:35:22;;;;;;;11.82;7.20;;;12.20;99.90;;;;;;5058014;28;20170;-81
2022/10/05 20:37:48;;;;;;;28.95;13.50;;;12.10;99.90;;;;;;5078447;28;20043;-83
2022/10/05 20:40:17;;;;;;;18.77;9.40;;;12.10;99.90;;;;;;5064639;28;20107;-82
2022/10/05 20:42:43;;;;;;;13.80;7.63;;;12.10;99.90;;;;;;5064737;28;20317;-81
2022/10/05 20:45:10;;;;;;;8.45;7.20;;;12.10;99.90;;;;;;5060925;28;20463;-82
2022/10/05 20:47:36;;;;;;;6.28;5.53;;;12.10;99.90;;;;;;5063234;28;20028;-83
2022/10/05 20:50:07;;;;;;;7.45;5.80;;;12.10;99.90;;;;;;5050920;28;20583;-82
2022/10/05 20:52:36;;;;;;;6.80;4.93;;;12.10;99.90;;;;;;5054900;28;20027;-83
2022/10/05 20:55:03;;;;;;;6.57;5.15;;;12.10;99.90;;;;;;5077614;28;20032;-83
2022/10/05 20:57:30;;;;;;;6.70;5.05;;;12.00;99.90;;;;;;5059247;28;20028;-83
2022/10/05 20:59:56;;;;;;;7.82;5.80;;;12.00;99.90;;;;;;5073600;28;20034;-82
2022/10/05 21:02:21;;;;;;;7.10;5.60;;;12.00;99.90;;;;;;5019859;28;20144;-82
2022/10/05 21:04:47;;;;;;;6.65;5.88;;;12.00;99.90;;;;;;5050962;28;20063;-82
2022/10/05 21:07:15;;;;;;;6.93;6.22;;;12.00;99.90;;;;;;5067003;28;20039;-83
2022/10/05 21:09:43;;;;;;;6.40;5.80;;;12.00;99.90;;;;;;5038717;28;20409;-84
2022/10/05 21:12:09;;;;;;;7.88;5.57;;;12.00;99.90;;;;;;5054334;28;20029;-82
2022/10/05 21:14:36;;;;;;;6.75;5.72;;;12.00;99.90;;;;;;5068172;28;20107;-82
2022/10/05 21:17:03;;;;;;;5.82;5.13;;;11.90;99.90;;;;;;5070067;28;20544;-81
2022/10/05 21:19:29;;;;;;;6.78;5.45;;;11.90;99.90;;;;;;5064292;28;20036;-82
2022/10/05 21:21:59;;;;;;;8.23;5.15;;;11.90;99.90;;;;;;5049042;28;20077;-81
2022/10/05 21:24:25;;;;;;;7.72;5.72;;;11.90;99.90;;;;;;5071616;28;20024;-84
2022/10/05 21:26:50;;;;;;;5.80;5.20;;;11.90;99.90;;;;;;5061451;28;20089;-81
2022/10/05 21:29:16;;;;;;;5.43;4.93;;;11.90;99.90;;;;;;5068120;28;20058;-82
2022/10/05 21:31:42;;;;;;;6.40;5.13;;;11.90;99.90;;;;;;5067204;28;20024;-83
2022/10/05 21:34:08;;;;;;;6.15;4.88;;;11.90;99.90;;;;;;5041350;28;20547;-82
2022/10/05 21:36:34;;;;;;;5.30;4.65;;;11.90;99.90;;;;;;5075457;28;20084;-83
2022/10/05 21:38:59;;;;;;;9.82;4.57;;;11.90;99.90;;;;;;5065859;28;20028;-83
2022/10/05 21:41:26;;;;;;;4.78;4.25;;;11.80;99.90;;;;;;5045045;28;20029;-86
2022/10/05 21:43:52;;;;;;;6.72;4.63;;;11.80;99.90;;;;;;5053223;28;20033;-85
2022/10/05 21:46:20;;;;;;;5.38;4.88;;;11.70;99.90;;;;;;5077063;28;20114;-85
2022/10/05 21:48:48;;;;;;;5.38;4.82;;;11.60;99.90;;;;;;5058669;28;20112;-84
2022/10/05 21:51:17;;;;;;;5.05;4.30;;;11.50;99.90;;;;;;5072753;28;20032;-85
2022/10/05 21:53:56;;;;;;;7.53;4.53;;;11.50;99.90;;;;;;5076810;28;20047;-84
2022/10/05 21:56:27;;;;;;;5.28;4.55;;;11.50;99.90;;;;;;5060804;28;20039;-84
2022/10/05 21:58:53;;;;;;;4.88;4.32;;;11.40;99.90;;;;;;5067025;28;20036;-84
2022/10/05 22:01:19;;;;;;;6.88;4.85;;;11.40;99.90;;;;;;5074553;28;20487;-84
2022/10/05 22:03:45;;;;;;;6.47;5.38;;;11.30;99.90;;;;;;5034325;28;20915;-84
2022/10/05 22:06:11;;;;;;;6.07;4.70;;;11.30;99.90;;;;;;5051923;28;20059;-85
2022/10/05 22:08:37;;;;;;;5.78;4.85;;;11.20;99.90;;;;;;5051136;28;20028;-84
2022/10/05 22:11:15;;;;;;;7.43;5.57;;;11.20;99.90;;;;;;5050100;28;20028;-85
2022/10/05 22:13:46;;;;;;;9.27;5.50;;;11.20;99.90;;;;;;5063045;28;20097;-84
2022/10/05 22:16:14;;;;;;;6.43;4.63;;;11.20;99.90;;;;;;5061765;28;20127;-85
2022/10/05 22:18:41;;;;;;;6.63;5.15;;;11.20;99.90;;;;;;5075691;28;20036;-85
2022/10/05 22:21:10;;;;;;;8.55;5.93;;;11.10;99.90;;;;;;5050608;28;20028;-84
2022/10/05 22:23:35;;;;;;;8.60;5.20;;;11.10;99.90;;;;;;5032777;28;20047;-84
2022/10/05 22:26:02;;;;;;;8.60;6.18;;;11.10;99.90;;;;;;5041220;28;20028;-84
2022/10/05 22:28:30;;;;;;;6.47;5.63;;;11.10;99.90;;;;;;5070333;28;20082;-85
2022/10/05 22:30:58;;;;;;;8.68;5.78;;;11.20;99.90;;;;;;5036896;28;20028;-85
2022/10/05 22:33:24;;;;;;;7.32;5.13;;;11.20;99.90;;;;;;5085893;28;20461;-84
2022/10/05 22:35:50;;;;;;;8.32;4.90;;;11.20;99.90;;;;;;5064992;28;20036;-84
2022/10/05 22:38:16;;;;;;;7.05;5.72;;;11.20;99.90;;;;;;5051151;28;20028;-85
2022/10/05 22:40:42;;;;;;;7.75;5.28;;;11.10;99.90;;;;;;5063146;28;20154;-84
2022/10/05 22:43:08;;;;;;;7.18;5.07;;;11.10;99.90;;;;;;5084659;28;20484;-84
2022/10/05 22:45:34;;;;;;;8.55;5.43;;;11.10;99.90;;;;;;5028980;28;20032;-84
2022/10/05 22:48:00;;;;;;;4.97;4.30;;;11.00;99.90;;;;;;5056166;28;20083;-85
2022/10/05 22:50:26;;;;;;;6.68;5.05;;;11.00;99.90;;;;;;5083143;28;20028;-86
2022/10/05 22:52:52;;;;;;;5.70;4.88;;;11.00;99.90;;;;;;5057248;28;20373;-84
2022/10/05 22:55:18;;;;;;;5.82;4.90;;;11.00;99.90;;;;;;5052661;28;20029;-85
2022/10/05 22:57:43;;;;;;;6.63;5.15;;;11.00;99.90;;;;;;5056123;28;20117;-86
2022/10/05 23:00:11;;;;;;;8.82;4.63;;;11.00;99.90;;;;;;5045834;28;20036;-84
2022/10/05 23:02:41;;;;;;;5.75;5.15;;;11.00;99.90;;;;;;5066886;28;20115;-84
2022/10/05 23:05:08;;;;;;;5.55;5.00;;;11.10;99.90;;;;;;5087302;28;20054;-85
2022/10/05 23:07:39;;;;;;;6.28;5.32;;;11.10;99.90;;;;;;5074054;28;20036;-85
2022/10/05 23:10:06;;;;;;;6.40;5.53;;;11.10;99.90;;;;;;5073899;28;20421;-85
2022/10/05 23:12:33;;;;;;;6.85;5.20;;;11.10;99.90;;;;;;5091643;28;20082;-84
2022/10/05 23:15:00;;;;;;;6.35;5.72;;;11.10;99.90;;;;;;5073541;28;20127;-84
2022/10/05 23:17:26;;;;;;;10.20;6.05;;;11.10;99.90;;;;;;5047546;28;20404;-85
2022/10/05 23:19:53;;;;;;;6.82;5.72;;;11.00;99.90;;;;;;5086625;28;20058;-85
2022/10/05 23:22:24;;;;;;;7.15;5.00;;;11.00;99.90;;;;;;5040495;28;20032;-85
2022/10/05 23:24:50;;;;;;;7.57;5.80;;;11.00;99.90;;;;;;5074544;28;20455;-84
2022/10/05 23:27:16;;;;;;;8.02;5.47;;;11.00;99.90;;;;;;5057205;28;20085;-85
2022/10/05 23:29:42;;;;;;;7.25;5.90;;;11.10;99.90;;;;;;5078378;28;20028;-84
2022/10/05 23:32:08;;;;;;;7.97;6.38;;;11.10;99.90;;;;;;5035810;28;20039;-84
2022/10/05 23:34:34;;;;;;;6.43;5.28;;;11.10;99.90;;;;;;5082755;28;20028;-85
2022/10/05 23:37:00;;;;;;;7.88;5.07;;;11.20;99.90;;;;;;5069813;28;20092;-85
2022/10/05 23:39:26;;;;;;;8.02;5.78;;;11.30;99.90;;;;;;5046535;28;20446;-86
2022/10/05 23:41:51;;;;;;;5.90;5.20;;;11.40;99.90;;;;;;5059865;28;20028;-84